Loretto, Virginia
Current Conditions -  °F | °C
As of 9:55 AM on Wednesday 22 Oct 2014 (Local Time) from KXSA Reporting Station
Light Rain Light Rain  
Wind Chill: 55°   Ceiling: 900
Heat Index: 55°   Visibility: 10mi
Dew Point: 49°   Wind: 7mph
Humidity: 82%   Direction: 290°WNW
Pressure: 29.89"   Gusts: NA
Location:  38.08°N, 77.05°W
Report Text: KXSA 221355Z AUTO 29006KT 10SM -RA OVC009 13/10 A2989 RMK AO2 LTG DSNT E T01260096
Loading
Personal Weather Stations






























Interactive Weather Map
Tropical Storm Tracking
New forecast layout! Learn more

10-Day Weather Forecast

Advertisements
Track Severe Weather on mobile